METAR Austria - 12 Dec 2017 - 2348 UTC - RocketRoute WX - rrwx.com
LOWG 122320Z AUTO 02006KT 350V060 9999 -RA FEW007 SCT018 BKN024 03/01 Q1017 LOWI 122320Z AUTO VRB02KT 5000 -RASN BR SCT006 BKN013 00/00 Q1018 LOWK 122320Z AUTO 05010KT 030V100 9999 -RA FEW028 BKN032 06/M01 Q1014 LOWL 122320Z AUTO 24005KT 9999 FEW024 BKN130 01/M01 Q1018 LOWS 122320Z AUTO 16004KT 130V200 9999 FEW042 SCT046 BKN060 00/M00 Q1019 LOWW 122320Z 29008KT 9999 FEW032 BKN045 04/M00 Q1018 NOSIG LOAN   LOXZ  

RocketRoute WX - rrwx.com weather for pilots